Time;durP1;ratioP1;P1;durP2;ratioP2;P2;SDS_P1;SDS_P2;PMS_P1;PMS_P2;Temp;Humidity;BMP_temperature;BMP_pressure;BME280_temperature;BME280_humidity;BME280_pressure;Samples;Min_cycle;Max_cycle;Signal;HPM_P1;HPM_P2
2021/05/23 00:00:27;;;;;;;6.60;2.00;;;;;;;10.00;71.27;95602.56;1053850;28;20028;-51
2021/05/23 00:00:58;;;;;;;5.05;1.90;;;;;;;10.00;71.26;95605.19;1053820;28;20419;-51
2021/05/23 00:01:28;;;;;;;9.27;2.10;;;;;;;10.01;70.68;95607.59;1053740;28;20460;-48
2021/05/23 00:01:59;;;;;;;4.70;1.90;;;;;;;10.02;69.91;95606.59;1053839;28;20431;-48
2021/05/23 00:02:30;;;;;;;3.92;1.70;;;;;;;9.98;71.31;95608.00;1053443;28;20074;-50
2021/05/23 00:03:03;;;;;;;4.20;1.87;;;;;;;9.94;71.60;95610.25;1049179;28;20039;-50
2021/05/23 00:03:34;;;;;;;5.97;1.90;;;;;;;9.91;71.79;95610.63;1045034;28;20090;-50
2021/05/23 00:04:04;;;;;;;4.20;1.77;;;;;;;9.89;72.34;95602.16;1041129;28;20033;-49
2021/05/23 00:04:35;;;;;;;4.87;1.87;;;;;;;9.83;72.69;95596.91;1045458;28;20032;-49
2021/05/23 00:05:07;;;;;;;4.28;1.73;;;;;;;9.89;72.43;95606.59;1049285;28;20021;-48
2021/05/23 00:05:39;;;;;;;4.78;2.03;;;;;;;9.91;70.98;95607.19;1053434;28;20320;-51
2021/05/23 00:06:09;;;;;;;7.40;2.75;;;;;;;9.96;70.36;95613.47;1053296;28;20027;-48
2021/05/23 00:06:40;;;;;;;4.10;1.80;;;;;;;9.96;71.34;95613.47;1053286;28;20020;-48
2021/05/23 00:07:11;;;;;;;4.77;2.27;;;;;;;10.00;71.57;95610.44;1049167;28;20147;-49
2021/05/23 00:08:06;;;;;;;8.17;2.87;;;;;;;9.95;71.44;95605.78;1049560;28;20255;-51
2021/05/23 00:08:37;;;;;;;6.43;2.40;;;;;;;10.00;72.02;95619.13;1053362;28;20363;-49
2021/05/23 00:09:07;;;;;;;6.03;2.27;;;;;;;10.03;71.70;95610.03;1053580;28;20081;-50
2021/05/23 00:09:38;;;;;;;5.27;2.10;;;;;;;10.01;70.38;95619.97;1053517;28;20027;-51
2021/05/23 00:10:08;;;;;;;5.53;2.60;;;;;;;10.03;69.65;95618.72;1052167;28;20032;-51
2021/05/23 00:10:44;;;;;;;5.43;2.10;;;;;;;10.03;70.18;95618.72;1053698;28;20020;-49
2021/05/23 00:11:15;;;;;;;4.57;1.70;;;;;;;10.04;70.81;95622.97;1053641;28;20089;-50
2021/05/23 00:11:45;;;;;;;6.03;1.67;;;;;;;10.02;70.02;95622.38;1053667;28;20036;-52
2021/05/23 00:12:16;;;;;;;4.93;1.87;;;;;;;10.02;70.33;95622.38;1053349;28;20454;-48
2021/05/23 00:12:46;;;;;;;5.63;1.77;;;;;;;10.02;70.11;95627.66;1053337;28;20032;-48
2021/05/23 00:13:19;;;;;;;6.40;1.70;;;;;;;10.02;70.84;95621.56;1053342;28;20600;-47
2021/05/23 00:13:49;;;;;;;7.07;1.90;;;;;;;10.03;69.87;95623.97;1053350;28;20016;-49
2021/05/23 00:14:20;;;;;;;5.07;1.53;;;;;;;10.03;70.54;95621.34;1053462;28;20027;-50
2021/05/23 00:14:51;;;;;;;6.20;1.63;;;;;;;10.05;69.42;95626.41;1053405;28;20020;-49
2021/05/23 00:15:28;;;;;;;4.70;1.70;;;;;;;10.05;69.70;95629.88;1053383;28;20044;-50
2021/05/23 00:16:05;;;;;;;5.03;1.70;;;;;;;10.06;71.10;95636.72;1049203;28;20054;-52
2021/05/23 00:16:36;;;;;;;4.50;1.67;;;;;;;10.08;71.33;95633.88;1046870;28;20068;-49
2021/05/23 00:17:06;;;;;;;6.50;1.93;;;;;;;10.05;70.20;95639.56;1049160;28;20043;-48
2021/05/23 00:17:37;;;;;;;3.73;1.70;;;;;;;9.98;70.80;95630.88;1050239;28;20044;-48
2021/05/23 00:18:07;;;;;;;4.03;1.30;;;;;;;10.00;70.92;95631.47;1053506;28;20024;-49
2021/05/23 00:18:40;;;;;;;4.30;1.70;;;;;;;9.96;70.79;95631.88;1053258;28;20024;-50
2021/05/23 00:19:11;;;;;;;4.05;1.65;;;;;;;9.91;71.22;95636.94;1053345;28;20023;-50
2021/05/23 00:19:42;;;;;;;5.33;1.57;;;;;;;9.95;71.35;95634.72;1053362;28;20023;-50
2021/05/23 00:20:12;;;;;;;5.80;1.60;;;;;;;9.90;72.34;95645.84;1053409;28;20020;-50
2021/05/23 00:20:43;;;;;;;4.20;1.67;;;;;;;9.87;72.53;95633.09;1051968;28;20547;-49
2021/05/23 00:21:16;;;;;;;4.80;1.87;;;;;;;9.81;72.41;95638.34;1053677;28;20055;-49
2021/05/23 00:21:46;;;;;;;4.57;1.83;;;;;;;9.82;72.31;95640.78;1053698;28;20431;-50
2021/05/23 00:22:17;;;;;;;5.17;1.60;;;;;;;9.91;71.83;95636.94;1053758;28;20028;-50
2021/05/23 00:22:47;;;;;;;7.17;1.93;;;;;;;9.92;71.47;95638.56;1053746;28;20364;-53
2021/05/23 00:23:18;;;;;;;6.00;1.60;;;;;;;9.93;71.74;95642.81;1053670;28;20031;-50
2021/05/23 00:23:48;;;;;;;6.87;1.70;;;;;;;9.97;71.00;95640.56;1053123;28;20499;-49
2021/05/23 00:24:19;;;;;;;6.27;1.80;;;;;;;9.97;70.86;95643.22;1048854;28;20039;-48
2021/05/23 00:24:50;;;;;;;4.20;1.77;;;;;;;10.01;70.42;95638.38;1049125;28;20031;-48
2021/05/23 00:25:21;;;;;;;3.90;1.50;;;;;;;10.02;70.87;95639.97;1045069;28;20107;-49
2021/05/23 00:25:52;;;;;;;5.15;1.85;;;;;;;10.02;70.34;95637.34;1049143;28;20130;-49
2021/05/23 00:26:23;;;;;;;6.95;1.80;;;;;;;10.03;70.70;95638.97;1053199;28;20016;-51
2021/05/23 00:26:53;;;;;;;4.27;1.40;;;;;;;10.07;70.66;95640.19;1053392;28;20040;-49
2021/05/23 00:27:24;;;;;;;5.80;1.77;;;;;;;10.04;70.31;95637.97;1053525;28;20024;-49
2021/05/23 00:27:55;;;;;;;4.77;1.40;;;;;;;10.04;71.06;95645.84;1053080;28;20008;-50
2021/05/23 00:28:25;;;;;;;4.73;1.37;;;;;;;10.03;71.18;95637.13;1053182;28;20015;-51
2021/05/23 00:28:56;;;;;;;6.63;1.73;;;;;;;10.03;71.46;95645.03;1053150;28;20012;-49
2021/05/23 00:29:26;;;;;;;4.60;1.60;;;;;;;10.09;70.82;95640.78;1049043;28;20068;-49
2021/05/23 00:29:56;;;;;;;4.83;1.70;;;;;;;10.09;70.83;95641.56;1053276;28;20047;-48
2021/05/23 00:30:27;;;;;;;4.10;1.57;;;;;;;10.07;71.71;95648.88;1048847;28;20368;-50
2021/05/23 00:30:59;;;;;;;4.03;1.60;;;;;;;10.04;71.78;95641.38;1049088;28;20012;-48
2021/05/23 00:31:30;;;;;;;5.60;1.60;;;;;;;9.96;72.49;95647.66;1050496;28;20016;-49
2021/05/23 00:32:00;;;;;;;4.40;1.50;;;;;;;9.94;72.47;95644.44;1049020;28;20557;-51
2021/05/23 00:32:31;;;;;;;5.03;1.57;;;;;;;10.01;72.59;95646.25;1049435;28;20413;-50
2021/05/23 00:33:02;;;;;;;4.60;1.70;;;;;;;9.96;72.78;95645.03;1049303;28;20023;-47
2021/05/23 00:33:32;;;;;;;5.43;1.65;;;;;;;10.00;72.88;95647.25;1049367;28;20082;-47
2021/05/23 00:34:03;;;;;;;4.87;1.80;;;;;;;10.06;72.28;95641.19;1049342;28;20531;-48
2021/05/23 00:34:33;;;;;;;5.07;1.60;;;;;;;10.06;72.73;95638.56;1049204;28;20025;-47
2021/05/23 00:35:04;;;;;;;5.57;1.97;;;;;;;10.07;73.09;95640.97;1049382;28;20058;-49
2021/05/23 00:35:35;;;;;;;6.00;1.83;;;;;;;10.12;72.49;95643.00;1049327;28;20020;-48
2021/05/23 00:36:05;;;;;;;6.00;1.80;;;;;;;10.12;72.23;95637.75;1049264;28;20025;-49
2021/05/23 00:36:36;;;;;;;6.13;2.00;;;;;;;10.05;73.46;95635.13;1049164;28;20035;-48
2021/05/23 00:37:06;;;;;;;5.57;1.90;;;;;;;10.02;73.87;95637.34;1049341;28;20411;-51
2021/05/23 00:37:37;;;;;;;6.80;2.07;;;;;;;9.96;73.61;95637.16;1049282;28;20024;-50
2021/05/23 00:38:07;;;;;;;6.93;1.80;;;;;;;10.01;72.20;95638.38;1048925;28;20024;-49
2021/05/23 00:38:39;;;;;;;5.37;1.90;;;;;;;9.98;72.28;95628.25;1049252;28;20051;-48
2021/05/23 00:39:10;;;;;;;6.90;2.08;;;;;;;9.94;71.35;95633.91;1049040;28;20360;-47
2021/05/23 00:39:40;;;;;;;5.00;2.10;;;;;;;9.95;71.64;95634.72;1049024;28;20024;-48
2021/05/23 00:40:11;;;;;;;6.03;2.33;;;;;;;9.85;72.54;95629.84;1053200;28;20016;-52
2021/05/23 00:40:42;;;;;;;6.17;2.00;;;;;;;9.75;72.97;95632.91;1053163;28;20043;-49
2021/05/23 00:41:12;;;;;;;5.93;2.03;;;;;;;9.77;73.08;95635.31;1053288;28;20047;-49
2021/05/23 00:41:43;;;;;;;4.27;1.97;;;;;;;9.71;73.68;95633.50;1053047;28;20358;-49
2021/05/23 00:42:13;;;;;;;7.13;2.10;;;;;;;9.71;73.67;95638.75;1048982;28;20452;-48
2021/05/23 00:42:44;;;;;;;5.63;2.03;;;;;;;9.72;74.08;95635.94;1048946;28;20497;-48
2021/05/23 00:43:18;;;;;;;4.40;1.70;;;;;;;9.71;74.38;95641.38;1048945;28;20027;-48
2021/05/23 00:43:49;;;;;;;6.65;2.08;;;;;;;9.71;74.64;95631.66;1045387;28;20095;-52
2021/05/23 00:44:21;;;;;;;4.77;1.90;;;;;;;9.73;75.24;95634.94;1048926;28;20504;-51
2021/05/23 00:44:51;;;;;;;3.83;1.70;;;;;;;9.78;75.16;95635.13;1049012;28;20059;-49
2021/05/23 00:45:22;;;;;;;5.67;1.67;;;;;;;9.74;75.59;95633.91;1048997;28;20021;-48
2021/05/23 00:45:52;;;;;;;4.93;1.93;;;;;;;9.75;74.86;95632.09;1049247;28;20027;-48
2021/05/23 00:46:23;;;;;;;4.47;1.80;;;;;;;9.75;76.47;95632.91;1049164;28;20432;-48
2021/05/23 00:46:53;;;;;;;4.97;1.87;;;;;;;9.80;75.20;95634.91;1049295;28;20358;-49
2021/05/23 00:47:23;;;;;;;4.13;1.40;;;;;;;9.83;75.24;95626.63;1049278;28;20046;-49
2021/05/23 00:47:54;;;;;;;6.37;2.00;;;;;;;9.85;76.83;95629.06;1049202;28;20534;-48
2021/05/23 00:48:24;;;;;;;5.23;1.70;;;;;;;9.83;76.94;95617.94;1049017;28;20020;-50
2021/05/23 00:48:55;;;;;;;5.30;1.80;;;;;;;9.78;74.10;95634.31;1050831;28;20063;-51
2021/05/23 00:49:25;;;;;;;6.77;1.70;;;;;;;9.74;73.45;95630.47;1049129;28;20048;-52
2021/05/23 00:49:56;;;;;;;5.17;1.70;;;;;;;9.83;73.91;95633.72;1049297;28;20012;-49
2021/05/23 00:50:26;;;;;;;3.90;1.70;;;;;;;9.78;75.17;95631.69;1049301;28;20035;-49
2021/05/23 00:50:57;;;;;;;7.27;2.23;;;;;;;9.80;75.30;95634.91;1049260;28;20027;-50
2021/05/23 00:51:27;;;;;;;8.17;2.20;;;;;;;9.76;75.19;95638.94;1049297;28;20016;-48
2021/05/23 00:51:58;;;;;;;5.57;1.90;;;;;;;9.74;75.18;95635.72;1049174;28;20024;-48
2021/05/23 00:52:28;;;;;;;6.43;2.00;;;;;;;9.78;74.35;95629.06;1049344;28;20021;-50
2021/05/23 00:52:59;;;;;;;6.90;1.90;;;;;;;9.84;74.26;95630.88;1049346;28;20107;-48
2021/05/23 00:53:30;;;;;;;5.88;1.80;;;;;;;9.80;75.21;95631.50;1049237;28;20081;-49
2021/05/23 00:54:01;;;;;;;4.13;1.80;;;;;;;9.74;76.63;95630.47;1048910;28;20025;-49
2021/05/23 00:54:32;;;;;;;7.47;1.90;;;;;;;9.69;76.98;95636.34;1048812;28;20029;-49
2021/05/23 00:55:03;;;;;;;5.20;1.77;;;;;;;9.72;76.46;95640.38;1049073;28;20063;-49
2021/05/23 00:55:34;;;;;;;3.83;1.70;;;;;;;9.81;76.61;95636.53;1048969;28;20060;-49
2021/05/23 00:56:04;;;;;;;5.60;2.07;;;;;;;9.84;76.46;95635.31;1048917;28;20024;-48
2021/05/23 00:56:36;;;;;;;5.70;1.97;;;;;;;9.87;75.43;95635.72;1049160;28;20063;-48
2021/05/23 00:57:06;;;;;;;4.80;1.75;;;;;;;9.93;74.98;95634.94;1053320;28;20024;-51
2021/05/23 00:57:37;;;;;;;7.60;2.23;;;;;;;9.90;74.73;95640.59;1053299;28;20039;-48
2021/05/23 00:58:07;;;;;;;6.37;2.00;;;;;;;9.96;75.90;95634.53;1049020;28;20036;-51
2021/05/23 00:58:38;;;;;;;6.30;1.90;;;;;;;9.98;75.32;95644.84;1044877;28;20021;-47
2021/05/23 00:59:09;;;;;;;5.33;2.00;;;;;;;9.97;75.76;95640.56;1044718;28;20040;-49
2021/05/23 00:59:40;;;;;;;6.32;2.08;;;;;;;9.97;75.89;95643.22;1047114;28;20548;-48
2021/05/23 01:00:10;;;;;;;4.37;1.80;;;;;;;9.95;75.54;95635.53;1053160;28;20028;-52
2021/05/23 01:00:41;;;;;;;4.87;2.00;;;;;;;9.96;77.32;95639.78;1053459;28;20376;-49
2021/05/23 01:01:31;;;;;;;6.60;1.70;;;;;;;9.92;76.98;95641.19;1053662;28;20106;-47
2021/05/23 01:02:01;;;;;;;6.40;1.70;;;;;;;9.90;75.68;95637.97;1053539;28;20027;-49
2021/05/23 01:02:42;;;;;;;4.10;1.57;;;;;;;9.92;75.61;95638.56;1053407;28;20040;-47
2021/05/23 01:03:27;;;;;;;8.60;2.00;;;;;;;9.93;74.34;95632.28;1053483;28;20019;-52
2021/05/23 01:03:58;;;;;;;6.10;1.80;;;;;;;9.87;76.15;95627.03;1053588;28;20038;-48
2021/05/23 01:04:29;;;;;;;6.47;2.00;;;;;;;9.83;77.00;95629.25;1053315;28;20031;-50
2021/05/23 01:04:59;;;;;;;4.17;1.90;;;;;;;9.82;75.70;95627.63;1053552;28;20024;-50
2021/05/23 01:05:30;;;;;;;4.63;1.67;;;;;;;9.82;74.39;95626.81;1053555;28;20024;-50
2021/05/23 01:06:05;;;;;;;5.50;2.20;;;;;;;9.77;75.73;95627.44;1053635;28;20085;-50
2021/05/23 01:06:36;;;;;;;5.75;1.70;;;;;;;9.77;74.48;95627.44;1053292;28;20024;-50
2021/05/23 01:07:07;;;;;;;7.07;1.80;;;;;;;9.77;72.78;95619.53;1053240;28;20446;-49
2021/05/23 01:07:39;;;;;;;6.50;1.80;;;;;;;9.81;73.21;95626.03;1053184;28;20024;-48
2021/05/23 01:08:09;;;;;;;5.82;1.80;;;;;;;9.76;73.21;95625.81;1053223;28;20039;-49
2021/05/23 01:08:40;;;;;;;5.47;1.80;;;;;;;9.76;74.22;95634.53;1053450;28;20031;-52
2021/05/23 01:09:10;;;;;;;4.03;1.57;;;;;;;9.74;74.77;95628.63;1053515;28;20476;-48
2021/05/23 01:09:41;;;;;;;4.67;1.70;;;;;;;9.73;74.74;95623.59;1053270;28;20052;-48
2021/05/23 01:10:16;;;;;;;4.00;1.60;;;;;;;9.76;74.76;95631.06;1052933;28;20016;-52
2021/05/23 01:10:51;;;;;;;4.53;1.50;;;;;;;9.85;73.08;95626.41;1053200;28;20028;-49
2021/05/23 01:11:27;;;;;;;5.30;1.75;;;;;;;9.81;72.99;95620.78;1053338;28;20035;-48
2021/05/23 01:12:25;;;;;;;3.55;1.50;;;;;;;9.91;73.05;95629.03;1053417;28;20031;-50
2021/05/23 01:12:56;;;;;;;7.15;1.95;;;;;;;9.91;74.01;95629.03;1053372;28;20376;-50
2021/05/23 01:13:38;;;;;;;4.13;1.80;;;;;;;9.92;73.44;95637.75;1053454;28;20028;-48
2021/05/23 01:14:12;;;;;;;3.95;1.52;;;;;;;9.89;73.76;95635.53;1053499;28;20024;-50
2021/05/23 01:14:56;;;;;;;6.15;1.70;;;;;;;9.82;74.26;95638.16;1053511;28;20031;-48
2021/05/23 01:15:31;;;;;;;5.50;1.73;;;;;;;9.82;74.83;95640.78;1053256;28;20388;-49
2021/05/23 01:16:12;;;;;;;6.78;1.73;;;;;;;9.78;75.30;95643.00;1053307;28;20020;-48
2021/05/23 01:16:51;;;;;;;7.05;2.08;;;;;;;9.86;75.10;95638.56;1048753;28;20016;-49
2021/05/23 01:17:23;;;;;;;8.57;2.00;;;;;;;9.87;75.17;95640.16;1047801;28;20103;-50
2021/05/23 01:17:53;;;;;;;6.35;2.05;;;;;;;9.85;75.80;95640.38;1044841;28;20021;-49
2021/05/23 01:18:45;;;;;;;5.80;1.93;;;;;;;9.79;76.56;95643.81;1038461;28;20038;-48
2021/05/23 01:19:33;;;;;;;6.13;1.90;;;;;;;9.77;77.30;95640.59;1043865;28;20108;-51
2021/05/23 01:20:10;;;;;;;5.93;2.08;;;;;;;9.77;77.33;95648.47;1047214;28;20052;-53
2021/05/23 01:20:51;;;;;;;6.55;2.13;;;;;;;9.79;78.40;95651.69;1048294;28;20542;-49
2021/05/23 01:21:22;;;;;;;4.93;1.90;;;;;;;9.76;78.82;95654.72;1044833;28;20453;-48
2021/05/23 01:21:53;;;;;;;3.53;1.60;;;;;;;9.70;76.36;95650.28;1042990;28;20040;-48
2021/05/23 01:22:36;;;;;;;6.70;1.90;;;;;;;9.70;74.97;95653.72;1046404;28;20465;-48
2021/05/23 01:23:09;;;;;;;5.15;1.75;;;;;;;9.78;74.71;95658.78;1044743;28;20033;-48
2021/05/23 01:23:54;;;;;;;4.63;1.42;;;;;;;9.78;74.97;95650.91;1046927;28;20504;-50
2021/05/23 01:24:52;;;;;;;4.68;1.63;;;;;;;9.80;75.60;95652.53;1040501;28;20133;-49
2021/05/23 01:25:23;;;;;;;4.68;1.80;;;;;;;9.85;75.08;95657.97;1040596;28;20032;-47
2021/05/23 01:26:02;;;;;;;5.20;1.52;;;;;;;9.87;75.69;95655.94;1037100;28;20022;-52
2021/05/23 01:26:33;;;;;;;7.63;2.15;;;;;;;9.87;75.96;95655.94;1044631;28;20100;-51
2021/05/23 01:27:06;;;;;;;5.15;1.67;;;;;;;9.82;75.94;95659.19;1042839;28;20515;-48
2021/05/23 01:27:38;;;;;;;5.10;1.70;;;;;;;9.70;76.15;95658.16;1046384;28;20108;-49
2021/05/23 01:28:08;;;;;;;4.38;1.90;;;;;;;9.77;75.65;95658.97;1044679;28;20494;-50
2021/05/23 01:28:53;;;;;;;6.60;2.00;;;;;;;9.77;76.03;95659.78;1044609;28;20017;-49
2021/05/23 01:29:23;;;;;;;5.13;1.90;;;;;;;9.63;77.14;95660.00;1044761;28;20068;-48
2021/05/23 01:29:54;;;;;;;7.27;2.00;;;;;;;9.54;77.64;95659.38;1042531;28;20073;-48
2021/05/23 01:30:28;;;;;;;6.00;1.70;;;;;;;9.63;76.67;95662.63;1044785;28;20028;-48
2021/05/23 01:30:58;;;;;;;5.03;1.73;;;;;;;9.58;77.38;95655.31;1046047;28;20432;-48
2021/05/23 01:31:29;;;;;;;6.60;2.20;;;;;;;9.53;77.54;95658.53;1049008;28;20117;-50
2021/05/23 01:32:00;;;;;;;7.78;1.75;;;;;;;9.45;77.44;95663.19;1049119;28;20066;-48
2021/05/23 01:32:30;;;;;;;4.90;1.70;;;;;;;9.49;77.46;95665.22;1053111;28;20024;-50
2021/05/23 01:33:03;;;;;;;6.90;1.73;;;;;;;9.49;77.53;95667.03;1053033;28;20031;-49
2021/05/23 01:33:33;;;;;;;4.93;1.80;;;;;;;9.47;77.92;95667.22;1048773;28;20491;-48
2021/05/23 01:34:04;;;;;;;5.07;1.90;;;;;;;9.51;78.24;95662.41;1048522;28;20059;-47
2021/05/23 01:34:34;;;;;;;5.33;1.90;;;;;;;9.57;77.91;95665.03;1044578;28;20495;-47
2021/05/23 01:35:11;;;;;;;4.10;1.70;;;;;;;9.57;77.67;95670.28;1044981;28;20421;-48
2021/05/23 01:35:46;;;;;;;4.65;1.63;;;;;;;9.58;78.01;95666.66;1051145;28;20404;-51
2021/05/23 01:36:17;;;;;;;3.95;1.90;;;;;;;9.57;78.20;95662.41;1052977;28;20028;-48
2021/05/23 01:36:47;;;;;;;5.43;1.70;;;;;;;9.58;77.79;95669.28;1053086;28;20027;-48
2021/05/23 01:37:18;;;;;;;4.70;1.73;;;;;;;9.60;78.00;95677.75;1052990;28;20030;-49
2021/05/23 01:37:50;;;;;;;7.83;1.80;;;;;;;9.66;77.94;95675.38;1053145;28;20162;-50
2021/05/23 01:38:21;;;;;;;6.63;1.65;;;;;;;9.67;77.63;95672.53;1048458;28;20074;-48
2021/05/23 01:38:51;;;;;;;4.20;1.60;;;;;;;9.64;78.06;95680.81;1045104;28;20425;-48
2021/05/23 01:39:22;;;;;;;5.87;1.83;;;;;;;9.65;79.01;95681.63;1040562;28;20096;-49
2021/05/23 01:39:52;;;;;;;5.83;1.70;;;;;;;9.63;78.54;95681.03;1040823;28;20024;-49
2021/05/23 01:40:22;;;;;;;4.03;1.60;;;;;;;9.71;78.55;95686.06;1040564;28;20040;-49
2021/05/23 01:40:56;;;;;;;6.77;1.70;;;;;;;9.72;78.03;95687.72;1040837;28;20072;-50
2021/05/23 01:41:26;;;;;;;5.20;1.75;;;;;;;9.69;78.76;95693.38;1048839;28;20021;-47
2021/05/23 01:41:57;;;;;;;5.43;1.60;;;;;;;9.66;79.42;95694.56;1049408;28;20055;-48
2021/05/23 01:42:27;;;;;;;6.33;2.10;;;;;;;9.64;79.52;95703.66;1048664;28;20016;-49
2021/05/23 01:42:58;;;;;;;6.70;1.90;;;;;;;9.52;79.78;95700.78;1048808;28;20056;-50
2021/05/23 01:43:28;;;;;;;4.63;1.77;;;;;;;9.43;80.85;95703.59;1048883;28;20017;-48
2021/05/23 01:43:59;;;;;;;7.83;2.00;;;;;;;9.48;81.01;95705.63;1044807;28;20084;-48
2021/05/23 01:44:29;;;;;;;4.60;2.10;;;;;;;9.58;79.40;95706.06;1044563;28;20037;-48
2021/05/23 01:45:00;;;;;;;5.93;1.70;;;;;;;9.55;80.03;95708.28;1044752;28;20076;-52
2021/05/23 01:45:31;;;;;;;4.40;1.87;;;;;;;9.49;79.47;95709.91;1044763;28;20021;-49
2021/05/23 01:46:01;;;;;;;4.13;1.63;;;;;;;9.51;78.33;95707.88;1041733;28;20055;-50
2021/05/23 01:46:32;;;;;;;6.43;1.80;;;;;;;9.43;78.77;95714.13;1040578;28;20025;-48
2021/05/23 01:47:03;;;;;;;5.27;1.67;;;;;;;9.40;77.76;95721.59;1040566;28;20405;-50
2021/05/23 01:47:33;;;;;;;6.83;1.57;;;;;;;9.42;77.78;95720.38;1040957;28;20425;-48
2021/05/23 01:48:05;;;;;;;7.37;2.00;;;;;;;9.45;78.22;95721.81;1048956;28;20021;-49
2021/05/23 01:48:37;;;;;;;5.45;1.60;;;;;;;9.45;77.85;95713.13;1048649;28;20036;-49
2021/05/23 01:49:08;;;;;;;5.70;1.50;;;;;;;9.41;78.98;95721.41;1048813;28;20070;-48
2021/05/23 01:49:39;;;;;;;4.28;1.60;;;;;;;9.45;77.17;95726.25;1048706;28;20062;-50
2021/05/23 01:50:10;;;;;;;3.97;1.40;;;;;;;9.46;76.55;95723.44;1041012;28;20025;-48
2021/05/23 01:50:40;;;;;;;6.80;1.70;;;;;;;9.38;75.87;95734.09;1044617;28;20017;-50
2021/05/23 01:51:11;;;;;;;3.83;1.57;;;;;;;9.29;76.90;95730.03;1044583;28;20509;-49
2021/05/23 01:51:41;;;;;;;3.70;1.47;;;;;;;9.24;77.05;95726.16;1044898;28;20063;-50
2021/05/23 01:52:12;;;;;;;4.77;1.50;;;;;;;9.19;77.25;95731.22;1052871;28;20023;-50
2021/05/23 01:52:47;;;;;;;4.97;1.43;;;;;;;9.20;77.94;95732.00;1049169;28;20103;-49
2021/05/23 01:53:17;;;;;;;3.90;1.33;;;;;;;9.11;78.39;95725.31;1048931;28;20124;-49
2021/05/23 01:53:48;;;;;;;4.43;1.47;;;;;;;9.18;78.70;95728.78;1048987;28;20099;-49
2021/05/23 01:54:18;;;;;;;5.87;1.37;;;;;;;9.13;79.45;95725.94;1048837;28;20024;-49
2021/05/23 01:54:48;;;;;;;4.83;1.40;;;;;;;9.02;79.68;95724.69;1052886;28;20390;-48
2021/05/23 01:55:20;;;;;;;5.67;1.50;;;;;;;8.92;80.93;95734.72;1044603;28;20024;-48
2021/05/23 01:55:50;;;;;;;4.82;1.30;;;;;;;8.96;81.08;95733.31;1040427;28;20017;-48
2021/05/23 01:56:21;;;;;;;6.87;1.70;;;;;;;8.97;82.08;95738.38;1040643;28;20009;-48
2021/05/23 01:56:51;;;;;;;4.33;1.80;;;;;;;8.93;82.88;95733.69;1044010;28;20047;-47
2021/05/23 01:57:22;;;;;;;4.03;1.40;;;;;;;8.99;82.70;95731.13;1053078;28;20043;-49
2021/05/23 01:57:52;;;;;;;4.20;1.50;;;;;;;9.00;81.60;95731.91;1053303;28;20012;-48
2021/05/23 01:58:23;;;;;;;4.30;1.47;;;;;;;8.91;82.19;95735.72;1053109;28;20403;-51
2021/05/23 01:58:53;;;;;;;6.27;1.50;;;;;;;8.91;82.70;95739.16;1053235;28;20023;-48
2021/05/23 01:59:24;;;;;;;4.27;1.60;;;;;;;8.84;82.48;95738.31;1053244;28;20061;-48
2021/05/23 01:59:54;;;;;;;6.60;1.50;;;;;;;8.80;83.33;95739.69;1052759;28;20153;-48
2021/05/23 02:00:29;;;;;;;7.07;2.10;;;;;;;8.72;84.51;95740.66;1053135;28;20008;-48
2021/05/23 02:00:59;;;;;;;6.53;1.60;;;;;;;8.74;84.76;95737.84;1053221;28;20039;-48
2021/05/23 02:01:31;;;;;;;8.63;1.80;;;;;;;8.75;85.74;95742.91;1053374;28;20023;-47
2021/05/23 02:02:02;;;;;;;4.63;1.50;;;;;;;8.86;84.72;95738.94;1053233;28;20103;-48
2021/05/23 02:02:32;;;;;;;5.67;1.60;;;;;;;8.77;85.59;95740.88;1048738;28;20012;-48
2021/05/23 02:03:05;;;;;;;6.40;1.60;;;;;;;8.84;85.22;95747.00;1048862;28;20021;-48
2021/05/23 02:03:35;;;;;;;5.18;1.50;;;;;;;8.74;85.61;95735.22;1044609;28;20039;-49
2021/05/23 02:04:06;;;;;;;8.27;2.13;;;;;;;8.69;86.98;95735.81;1044957;28;20060;-49
2021/05/23 02:04:36;;;;;;;5.33;1.70;;;;;;;8.66;87.29;95741.44;1048721;28;20009;-48
2021/05/23 02:05:07;;;;;;;11.57;2.00;;;;;;;8.67;87.89;95741.25;1041097;28;20014;-48
2021/05/23 02:05:40;;;;;;;4.73;1.50;;;;;;;8.62;89.13;95737.56;1048780;28;20016;-49
2021/05/23 02:06:11;;;;;;;7.95;1.73;;;;;;;8.66;88.65;95738.81;1044634;28;20399;-49
2021/05/23 02:06:41;;;;;;;5.07;1.60;;;;;;;8.63;88.79;95732.13;1045551;28;20009;-48
2021/05/23 02:07:11;;;;;;;6.30;1.60;;;;;;;8.61;89.28;95741.19;1048361;28;20013;-49
2021/05/23 02:07:42;;;;;;;4.33;1.67;;;;;;;8.47;88.73;95741.13;1048864;28;20012;-48
2021/05/23 02:08:14;;;;;;;5.03;1.60;;;;;;;8.46;88.85;95742.09;1048410;28;20005;-48
2021/05/23 02:08:45;;;;;;;5.80;1.83;;;;;;;8.34;90.71;95747.03;1049155;28;20435;-48
2021/05/23 02:09:15;;;;;;;5.30;1.60;;;;;;;8.32;91.35;95740.34;1053605;28;20099;-48
2021/05/23 02:09:46;;;;;;;3.80;1.70;;;;;;;8.38;91.25;95741.41;1052892;28;20008;-48
2021/05/23 02:10:17;;;;;;;7.30;1.87;;;;;;;8.38;90.64;95734.38;1048682;28;20031;-48
2021/05/23 02:10:48;;;;;;;4.70;1.70;;;;;;;8.45;90.61;95737.84;1048854;28;20392;-48
2021/05/23 02:11:19;;;;;;;7.93;1.90;;;;;;;8.44;91.23;95740.66;1048742;28;20023;-48
2021/05/23 02:11:55;;;;;;;5.00;1.60;;;;;;;8.49;91.25;95736.47;1048769;28;20096;-50
2021/05/23 02:12:25;;;;;;;5.18;1.77;;;;;;;8.45;91.20;95735.22;1048926;28;20025;-49
2021/05/23 02:12:59;;;;;;;7.20;1.87;;;;;;;8.42;92.24;95742.66;1049065;28;20013;-51
2021/05/23 02:13:30;;;;;;;3.55;1.65;;;;;;;8.43;92.85;95736.41;1048867;28;20054;-49
2021/05/23 02:14:00;;;;;;;6.00;1.80;;;;;;;8.47;92.57;95738.50;1048724;28;20016;-52
2021/05/23 02:14:30;;;;;;;8.00;1.90;;;;;;;8.52;91.83;95743.97;1048388;28;20050;-49
2021/05/23 02:15:02;;;;;;;4.57;1.90;;;;;;;8.54;91.99;95739.31;1048647;28;20027;-47
2021/05/23 02:15:33;;;;;;;5.63;1.88;;;;;;;8.48;92.60;95737.47;1048720;28;20031;-49
2021/05/23 02:16:04;;;;;;;3.95;1.77;;;;;;;8.44;93.54;95738.88;1048993;28;20526;-48
2021/05/23 02:16:34;;;;;;;4.82;1.70;;;;;;;8.44;93.14;95738.88;1048889;28;20028;-51
2021/05/23 02:17:05;;;;;;;5.93;1.90;;;;;;;8.48;93.38;95737.47;1048539;28;20031;-51
2021/05/23 02:17:36;;;;;;;4.53;1.67;;;;;;;8.57;92.55;95742.59;1048768;28;20008;-49
2021/05/23 02:18:07;;;;;;;3.38;1.63;;;;;;;8.60;91.89;95737.75;1048534;28;20512;-49
2021/05/23 02:18:37;;;;;;;8.93;2.30;;;;;;;8.58;91.61;95741.56;1052292;28;20026;-50
2021/05/23 02:19:08;;;;;;;4.57;1.90;;;;;;;8.51;92.72;95738.91;1053075;28;20086;-51
2021/05/23 02:19:38;;;;;;;4.13;1.70;;;;;;;8.57;92.62;95739.97;1052840;28;20015;-50
2021/05/23 02:20:11;;;;;;;8.20;2.10;;;;;;;8.56;93.27;95748.84;1044489;28;20017;-51
2021/05/23 02:20:42;;;;;;;5.13;2.05;;;;;;;8.55;93.71;95742.78;1044587;28;20095;-53
2021/05/23 02:21:13;;;;;;;5.37;1.80;;;;;;;8.60;93.67;95742.22;1044878;28;20055;-53
2021/05/23 02:21:43;;;;;;;4.87;1.90;;;;;;;8.62;92.13;95743.63;1049256;28;20016;-51
2021/05/23 02:22:13;;;;;;;5.00;2.03;;;;;;;8.63;93.08;95741.81;1053115;28;20023;-49
2021/05/23 02:22:46;;;;;;;7.27;1.83;;;;;;;8.59;93.26;95737.94;1053181;28;20012;-48
2021/05/23 02:23:21;;;;;;;4.80;2.00;;;;;;;8.48;93.35;95747.16;1052813;28;20022;-51
2021/05/23 02:23:53;;;;;;;5.35;1.80;;;;;;;8.47;93.77;95749.00;1052769;28;20091;-49
2021/05/23 02:24:24;;;;;;;5.70;1.77;;;;;;;8.48;92.15;95747.16;1052708;28;20062;-50
2021/05/23 02:24:54;;;;;;;5.13;1.97;;;;;;;8.47;91.93;95750.78;1052873;28;20384;-48
2021/05/23 02:25:26;;;;;;;4.83;1.83;;;;;;;8.35;93.32;95746.03;1053138;28;20023;-49
2021/05/23 02:25:57;;;;;;;6.53;1.83;;;;;;;8.42;93.21;95747.91;1053016;28;20012;-48
2021/05/23 02:26:27;;;;;;;4.77;1.83;;;;;;;8.47;93.32;95742.91;1053008;28;20104;-48
2021/05/23 02:26:57;;;;;;;4.60;1.60;;;;;;;8.49;92.85;95744.34;1053113;28;20360;-48
2021/05/23 02:27:28;;;;;;;4.47;1.80;;;;;;;8.49;92.97;95746.97;1052997;28;20016;-51
2021/05/23 02:28:03;;;;;;;4.60;1.70;;;;;;;8.40;93.05;95748.09;1053071;28;20099;-48
2021/05/23 02:28:34;;;;;;;5.13;1.90;;;;;;;8.38;93.79;95750.09;1053071;28;20464;-48
2021/05/23 02:29:04;;;;;;;3.93;1.70;;;;;;;8.35;94.31;95746.03;1051269;28;20036;-49
2021/05/23 02:29:35;;;;;;;7.80;1.73;;;;;;;8.43;94.15;95744.28;1056900;28;20018;-48
2021/05/23 02:30:07;;;;;;;6.70;1.83;;;;;;;8.45;93.78;95743.09;1057066;28;20043;-52
2021/05/23 02:30:40;;;;;;;4.78;1.80;;;;;;;8.42;94.47;95743.44;1056953;28;20012;-49
2021/05/23 02:31:10;;;;;;;3.53;1.70;;;;;;;8.45;94.12;95743.09;1056429;28;20109;-48
2021/05/23 02:31:41;;;;;;;6.00;1.83;;;;;;;8.46;94.00;95742.09;1053040;28;20049;-49
2021/05/23 02:32:11;;;;;;;4.50;1.50;;;;;;;8.41;93.61;95738.41;1053082;28;20050;-48
2021/05/23 02:32:42;;;;;;;5.77;1.90;;;;;;;8.42;94.38;95740.81;1053102;28;20012;-49